Google Maps JavaScript API Example
Pilot Flight Report # 92963 Submitted by : AST003 on 2019-05-12
Date: 2019-05-12Aircraft: DeHavilland DHC6 Twin Otter - Wheeled
Flight No.: Not AvailableDistance (Nm): 145.93
Departure: GVFM - Francisco MendesDestination: GVSV - Sao Pedro
 TimeFuelWeightSpeeds  
Out (Taxi)1333Z1447 lbs10232 lbs Flight RulesIFR
Off (Takeoff)1334Z 10227 lbs83 ktsFlight Level9500
On (Landing)1431Z 9498 lbs54 ktsVSTD-131 ft/min
In (Ramp)1431Z717 lbs9498 lbs ZFW8784 lbs
Flight1.00  -  0:57730 lbs  Pax0
Block0.97  -  0:58730 lbs  Cargo0
Departure WeatherGVFM 121333Z 05113KT 27SM FEW016 22/18 A2994
Destination WeatherGO0A 121431Z 08116KT 32SM FEW017 22/18 A2997
Flight Comments